Beauregard Regional Airport
KDRI : now visible

Airfield :











YOU CAN JOIN US ON...

 
LOGIN :

Register | Disclaimer

   EN    FR    IT 

 









Legend :    VFR   Marginal VFR   IFR   Intensive IFR   Very Intensive IFR
Visi :
Ceiling :
>= 8 km
>= 3000ft
5 to 8 km
1000 to 3000 ft
1500m to 5 km
500 to 1000 ft
800 to 1500m
200 to 500 ft
< 800m
< 200 ft
Symbols :   Thunderstorms  Fog  Heavy snow  Heavy precipitations  Wind > 20 kt






- Airport Elevation : 202 ft


KDRI - Beauregard Regional

CURRENT METAR :
  • 281135Z AUTO 00000KT 9SM CLR 06/06 A3001 RMK AO2 T00580058 $

EXPIRED METARs :
  • 281115Z AUTO 00000KT 10SM CLR 06/06 A3000 RMK AO2 T00640064 $
  • 281055Z AUTO 00000KT 9SM CLR 07/07 A3000 RMK AO2 T00650065 $
  • 281035Z AUTO 00000KT 9SM CLR 07/07 A3000 RMK AO2 T00680067 $
  • 281015Z AUTO 00000KT 9SM CLR 07/07 A3000 RMK AO2 T00670067 $
  • 280955Z AUTO 00000KT 10SM CLR 07/07 A2999 RMK AO2 T00690069 $
  • 280935Z AUTO 00000KT 10SM CLR 07/07 A2999 RMK AO2 T00670067 $
  • 280915Z AUTO 00000KT 10SM CLR 07/07 A2999 RMK AO2 T00730073 $
  • 280855Z AUTO 00000KT 10SM CLR 07/07 A2999 RMK AO2 T00740074 $

TAF N/A
KZHU FIR / North America



MET'MAP, your aeronautical weather chart ! - Copyright ORBIFLY December 2007 - Disclaimer

ORBIFLY MET'MAP TEAM :

Programming & Development : Alexandra Zaïnal
Original concept : Baudouin d'Aumeries
Technical & hardware support : Manuel Goepfert
Assistance : Marc-Olivier Méhu




SOURCES & CREDITS :

   NOAA       Earth
Advisory